Time;durP1;ratioP1;P1;durP2;ratioP2;P2;SDS_P1;SDS_P2;PMS_P1;PMS_P2;Temp;Humidity;BMP_temperature;BMP_pressure;BME280_temperature;BME280_humidity;BME280_pressure;Samples;Min_cycle;Max_cycle;Signal;HPM_P1;HPM_P2
2022/07/07 00:02:18;;;;;;;3.00;2.17;;;14.50;99.90;;;;;;4973506;28;20216;-80
2022/07/07 00:04:44;;;;;;;2.83;2.17;;;14.60;99.90;;;;;;4973683;28;20267;-78
2022/07/07 00:07:09;;;;;;;2.40;1.93;;;14.50;99.90;;;;;;4973367;28;20924;-78
2022/07/07 00:09:35;;;;;;;2.30;2.00;;;14.50;99.90;;;;;;4975409;28;20216;-78
2022/07/07 00:12:01;;;;;;;2.83;1.60;;;14.60;99.90;;;;;;4976626;28;20214;-79
2022/07/07 00:14:29;;;;;;;3.07;2.43;;;14.60;99.90;;;;;;4976205;28;20180;-79
2022/07/07 00:16:55;;;;;;;2.50;2.10;;;14.60;99.90;;;;;;4976712;28;20199;-81
2022/07/07 00:19:20;;;;;;;3.97;2.00;;;14.60;99.90;;;;;;4976712;28;20851;-78
2022/07/07 00:21:49;;;;;;;2.80;2.03;;;14.60;99.90;;;;;;4976613;28;20212;-79
2022/07/07 00:24:17;;;;;;;3.10;2.23;;;14.60;99.90;;;;;;4976579;28;20227;-78
2022/07/07 00:26:42;;;;;;;3.10;2.30;;;14.60;99.90;;;;;;4976198;28;20436;-78
2022/07/07 00:29:08;;;;;;;3.47;2.27;;;14.60;99.90;;;;;;4976501;28;20408;-82
2022/07/07 00:31:34;;;;;;;2.50;1.93;;;14.70;99.90;;;;;;4976490;28;20181;-79
2022/07/07 00:33:59;;;;;;;2.60;2.37;;;14.70;99.90;;;;;;4976491;28;20625;-79
2022/07/07 00:36:25;;;;;;;1.83;1.33;;;14.60;99.90;;;;;;4976440;28;20625;-79
2022/07/07 00:38:50;;;;;;;2.13;1.30;;;14.70;99.90;;;;;;4976300;28;20179;-79
2022/07/07 00:41:16;;;;;;;2.20;1.33;;;14.70;99.90;;;;;;4975788;28;20741;-79
2022/07/07 00:43:43;;;;;;;2.63;1.60;;;14.70;99.90;;;;;;4976276;28;20171;-82
2022/07/07 00:46:09;;;;;;;2.93;1.47;;;14.70;99.90;;;;;;4976273;28;20182;-79
2022/07/07 00:48:37;;;;;;;3.00;1.77;;;14.70;99.90;;;;;;4976244;28;20832;-79
2022/07/07 00:51:11;;;;;;;2.43;1.70;;;14.70;99.90;;;;;;4976216;28;20532;-79
2022/07/07 00:53:37;;;;;;;2.23;1.83;;;14.70;99.90;;;;;;4976177;28;20940;-79
2022/07/07 00:56:03;;;;;;;2.30;1.33;;;14.80;99.90;;;;;;4975849;28;20495;-80
2022/07/07 00:58:29;;;;;;;2.80;1.50;;;14.80;99.90;;;;;;4975997;28;20453;-79
2022/07/07 01:00:55;;;;;;;3.13;1.43;;;14.80;99.90;;;;;;4975941;28;20307;-78
2022/07/07 01:03:20;;;;;;;2.20;1.80;;;14.80;99.90;;;;;;4975618;28;20427;-78
2022/07/07 01:05:47;;;;;;;2.40;1.83;;;14.80;99.90;;;;;;4975821;28;20533;-78
2022/07/07 01:08:17;;;;;;;2.27;1.17;;;14.70;99.90;;;;;;4975683;28;20176;-84
2022/07/07 01:10:43;;;;;;;4.30;1.80;;;14.70;99.90;;;;;;4975278;28;20463;-78
2022/07/07 01:13:09;;;;;;;4.07;2.00;;;14.70;99.90;;;;;;4975693;28;20467;-80
2022/07/07 01:15:34;;;;;;;3.37;1.77;;;14.70;99.90;;;;;;4975779;28;20498;-78
2022/07/07 01:18:00;;;;;;;2.37;1.77;;;14.70;99.90;;;;;;4975557;28;20654;-85
2022/07/07 01:20:26;;;;;;;3.27;1.80;;;14.80;99.90;;;;;;4973765;28;20176;-82
2022/07/07 01:22:55;;;;;;;3.20;2.10;;;14.80;99.90;;;;;;4975543;28;20176;-79
2022/07/07 01:25:22;;;;;;;4.13;1.33;;;14.80;99.90;;;;;;4975238;28;20505;-86
2022/07/07 01:27:49;;;;;;;5.60;1.93;;;14.80;99.90;;;;;;4975488;28;20884;-80
2022/07/07 01:30:18;;;;;;;2.37;1.70;;;14.80;99.90;;;;;;4975373;28;20494;-79
2022/07/07 01:32:44;;;;;;;2.23;1.80;;;14.80;99.90;;;;;;4975251;28;20419;-78
2022/07/07 01:35:10;;;;;;;3.20;1.87;;;14.80;99.90;;;;;;4975261;28;20951;-85
2022/07/07 01:37:36;;;;;;;2.40;1.73;;;14.80;99.90;;;;;;4975153;28;20263;-84
2022/07/07 01:40:03;;;;;;;3.03;1.60;;;14.80;99.90;;;;;;4974837;28;20466;-83
2022/07/07 01:42:29;;;;;;;2.30;1.63;;;14.80;99.90;;;;;;4975048;28;20471;-79
2022/07/07 01:44:54;;;;;;;2.30;1.40;;;14.80;99.90;;;;;;4975056;28;20430;-82
2022/07/07 01:47:21;;;;;;;2.10;1.57;;;14.80;99.90;;;;;;4975017;28;20539;-80
2022/07/07 01:49:47;;;;;;;3.37;1.90;;;14.90;99.90;;;;;;4975012;28;20173;-86
2022/07/07 01:52:13;;;;;;;3.10;1.40;;;14.80;99.90;;;;;;4974947;28;20494;-86
2022/07/07 01:54:39;;;;;;;2.40;1.87;;;14.80;99.90;;;;;;4974594;28;20840;-84
2022/07/07 01:57:06;;;;;;;2.87;2.07;;;14.80;99.90;;;;;;4974864;28;20511;-78
2022/07/07 01:59:36;;;;;;;2.93;2.43;;;14.80;99.90;;;;;;4974696;28;20790;-83
2022/07/07 02:02:01;;;;;;;3.43;2.60;;;14.90;99.90;;;;;;4974737;28;20709;-79
2022/07/07 02:04:27;;;;;;;3.20;2.47;;;14.90;99.90;;;;;;4974799;28;20499;-78
2022/07/07 02:06:52;;;;;;;4.03;2.30;;;14.90;99.90;;;;;;4974808;28;20176;-86
2022/07/07 02:09:18;;;;;;;3.70;2.10;;;14.90;99.90;;;;;;4974239;28;20220;-78
2022/07/07 02:11:44;;;;;;;3.80;2.90;;;14.90;99.90;;;;;;4968773;28;20178;-86
2022/07/07 02:14:10;;;;;;;2.93;2.33;;;14.90;99.90;;;;;;4955206;29;20244;-78
2022/07/07 02:16:36;;;;;;;4.77;3.10;;;14.90;99.90;;;;;;4955293;29;20182;-79
2022/07/07 02:19:04;;;;;;;3.80;2.30;;;14.90;99.90;;;;;;4955373;29;20914;-84
2022/07/07 02:21:29;;;;;;;3.10;2.37;;;15.00;99.90;;;;;;4955220;29;20965;-84
2022/07/07 02:23:56;;;;;;;3.70;2.87;;;15.00;99.90;;;;;;4955286;29;20427;-81
2022/07/07 02:26:22;;;;;;;3.43;2.97;;;15.00;99.90;;;;;;4954822;29;20641;-83
2022/07/07 02:28:48;;;;;;;3.70;3.30;;;15.00;99.90;;;;;;4955176;29;20826;-78
2022/07/07 02:31:14;;;;;;;5.00;3.70;;;15.00;99.90;;;;;;4954411;28;20425;-79
2022/07/07 02:33:40;;;;;;;3.97;3.30;;;15.00;99.90;;;;;;4953876;29;20420;-84
2022/07/07 02:36:07;;;;;;;5.20;4.20;;;15.00;99.90;;;;;;4954986;29;20981;-79
2022/07/07 02:38:33;;;;;;;4.43;3.73;;;15.10;99.90;;;;;;4954821;29;20424;-78
2022/07/07 02:40:59;;;;;;;5.23;4.70;;;15.10;99.90;;;;;;4954414;29;20456;-84
2022/07/07 02:43:26;;;;;;;6.37;5.77;;;15.10;99.90;;;;;;4954674;29;20432;-80
2022/07/07 02:45:52;;;;;;;6.67;6.07;;;15.10;99.90;;;;;;4953581;29;20637;-78
2022/07/07 02:48:21;;;;;;;6.73;5.80;;;15.10;99.90;;;;;;4954770;29;20426;-78
2022/07/07 02:50:47;;;;;;;8.20;7.13;;;15.10;99.90;;;;;;4954840;29;20425;-82
2022/07/07 02:53:13;;;;;;;8.30;6.97;;;15.10;99.90;;;;;;4954726;29;20419;-79
2022/07/07 02:55:39;;;;;;;8.47;7.57;;;15.10;99.90;;;;;;4954396;29;20424;-85
2022/07/07 02:58:07;;;;;;;9.33;8.33;;;15.10;99.90;;;;;;4954740;29;20437;-81
2022/07/07 03:00:36;;;;;;;10.23;8.10;;;15.20;99.90;;;;;;4954774;29;20468;-85
2022/07/07 03:03:03;;;;;;;8.37;7.53;;;15.20;99.90;;;;;;4954606;29;20432;-80
2022/07/07 03:05:29;;;;;;;8.63;7.43;;;15.20;99.90;;;;;;4954612;29;20980;-84
2022/07/07 03:07:55;;;;;;;11.17;8.23;;;15.20;99.90;;;;;;4954708;29;20408;-85
2022/07/07 03:10:21;;;;;;;9.83;8.10;;;15.20;99.90;;;;;;4954182;29;20492;-86
2022/07/07 03:12:47;;;;;;;9.37;8.47;;;15.20;99.90;;;;;;4954632;29;20182;-86
2022/07/07 03:15:13;;;;;;;10.60;8.97;;;15.20;99.90;;;;;;4954608;29;20635;-79
2022/07/07 03:17:44;;;;;;;8.93;8.03;;;15.20;99.90;;;;;;4954576;29;20257;-86
2022/07/07 03:20:10;;;;;;;10.60;9.20;;;15.20;99.90;;;;;;4954546;29;20421;-84
2022/07/07 03:22:37;;;;;;;9.87;8.83;;;15.20;99.90;;;;;;4954632;29;20444;-84
2022/07/07 03:25:03;;;;;;;11.33;9.67;;;15.20;99.90;;;;;;4954175;29;20406;-83
2022/07/07 03:27:29;;;;;;;10.80;9.80;;;15.20;99.90;;;;;;4954438;29;21006;-83
2022/07/07 03:29:54;;;;;;;11.10;9.20;;;15.30;99.90;;;;;;4954630;29;20418;-83
2022/07/07 03:32:20;;;;;;;13.30;10.93;;;15.30;99.90;;;;;;4954230;28;20222;-83
2022/07/07 03:34:45;;;;;;;14.33;10.70;;;15.30;99.90;;;;;;4954415;28;20173;-80
2022/07/07 03:37:11;;;;;;;12.67;11.37;;;15.30;99.90;;;;;;4954387;28;20643;-79
2022/07/07 03:39:45;;;;;;;12.00;10.80;;;15.30;99.90;;;;;;4953703;28;20186;-78
2022/07/07 03:42:11;;;;;;;11.87;10.67;;;15.30;99.90;;;;;;4954694;28;20622;-79
2022/07/07 03:44:36;;;;;;;11.80;10.57;;;15.30;99.90;;;;;;4957966;28;20421;-78
2022/07/07 03:47:03;;;;;;;11.77;10.23;;;15.40;99.90;;;;;;4958047;28;20180;-84
2022/07/07 03:49:29;;;;;;;11.63;10.43;;;15.30;99.90;;;;;;4957908;28;20173;-78
2022/07/07 03:51:54;;;;;;;11.13;9.90;;;15.30;99.90;;;;;;4958059;28;20428;-88
2022/07/07 03:54:20;;;;;;;12.57;11.30;;;15.40;99.90;;;;;;4957631;29;20173;-78
2022/07/07 03:56:45;;;;;;;12.73;11.23;;;15.40;99.90;;;;;;4957948;28;20210;-86
2022/07/07 03:59:11;;;;;;;12.03;10.67;;;15.40;99.90;;;;;;4957962;28;20656;-78
2022/07/07 04:01:36;;;;;;;15.07;12.00;;;15.40;99.90;;;;;;4957715;28;20223;-85
2022/07/07 04:04:04;;;;;;;12.20;10.93;;;15.40;99.90;;;;;;4957848;28;20580;-78
2022/07/07 04:06:31;;;;;;;11.87;10.70;;;15.40;99.90;;;;;;4958080;28;20232;-87
2022/07/07 04:08:59;;;;;;;12.07;10.60;;;15.40;99.90;;;;;;4957490;28;20413;-78
2022/07/07 04:11:24;;;;;;;12.80;11.60;;;15.40;99.90;;;;;;4957785;28;20504;-78
2022/07/07 04:13:50;;;;;;;11.73;10.57;;;15.40;99.90;;;;;;4957630;28;20512;-82
2022/07/07 04:16:15;;;;;;;12.17;10.60;;;15.40;99.90;;;;;;4957591;28;20236;-79
2022/07/07 04:18:41;;;;;;;14.07;11.23;;;15.40;99.90;;;;;;4957044;28;20182;-78
2022/07/07 04:21:06;;;;;;;12.03;10.83;;;15.40;99.90;;;;;;4955947;29;20752;-78
2022/07/07 04:23:32;;;;;;;11.67;10.57;;;15.40;99.90;;;;;;4956016;29;20192;-78
2022/07/07 04:25:57;;;;;;;12.23;10.57;;;15.40;99.90;;;;;;4955648;28;20173;-78
2022/07/07 04:28:23;;;;;;;12.97;11.60;;;15.40;99.90;;;;;;4955710;29;20176;-78
2022/07/07 04:30:48;;;;;;;11.90;10.70;;;15.40;99.90;;;;;;4957231;28;20680;-82
2022/07/07 04:33:14;;;;;;;12.50;10.70;;;15.40;99.90;;;;;;4954757;29;20535;-85
2022/07/07 04:35:39;;;;;;;10.33;9.33;;;15.40;99.90;;;;;;4956547;28;20220;-86
2022/07/07 04:38:05;;;;;;;13.40;10.80;;;15.40;99.90;;;;;;4957269;29;20193;-81
2022/07/07 04:40:30;;;;;;;11.30;10.20;;;15.40;99.90;;;;;;4956824;28;20185;-85
2022/07/07 04:42:56;;;;;;;11.27;10.07;;;15.40;99.90;;;;;;4957093;28;20175;-84
2022/07/07 04:45:22;;;;;;;10.30;9.07;;;15.40;99.90;;;;;;4957130;28;20166;-85
2022/07/07 04:47:48;;;;;;;11.50;10.30;;;15.40;99.90;;;;;;4957205;29;20778;-86
2022/07/07 04:50:13;;;;;;;10.90;9.80;;;15.40;99.90;;;;;;4957127;28;20167;-82
2022/07/07 04:52:39;;;;;;;12.70;11.40;;;15.40;99.90;;;;;;4957033;29;20650;-83
2022/07/07 04:55:06;;;;;;;16.27;11.27;;;15.40;99.90;;;;;;4955833;28;20174;-84
2022/07/07 04:57:31;;;;;;;13.27;11.90;;;15.40;99.90;;;;;;4957017;28;20478;-83
2022/07/07 04:59:57;;;;;;;11.30;10.20;;;15.40;99.90;;;;;;4956864;28;20421;-86
2022/07/07 05:02:23;;;;;;;13.50;10.47;;;15.50;99.90;;;;;;4956671;28;20687;-85
2022/07/07 05:04:49;;;;;;;12.73;9.90;;;15.40;99.90;;;;;;4956692;28;20418;-83
2022/07/07 05:07:15;;;;;;;13.93;12.37;;;15.40;99.90;;;;;;4956785;29;20182;-84
2022/07/07 05:09:41;;;;;;;13.53;11.40;;;15.40;99.90;;;;;;4956243;29;20237;-85
2022/07/07 05:12:07;;;;;;;12.83;11.30;;;15.50;99.90;;;;;;4955427;29;20509;-84
2022/07/07 05:14:32;;;;;;;12.87;11.57;;;15.50;99.90;;;;;;4956546;28;20701;-85
2022/07/07 05:16:59;;;;;;;13.33;10.80;;;15.50;99.90;;;;;;4955376;29;20513;-83
2022/07/07 05:19:25;;;;;;;14.30;11.87;;;15.50;99.90;;;;;;4956542;28;20223;-85
2022/07/07 05:21:50;;;;;;;12.77;11.47;;;15.50;99.90;;;;;;4956395;28;20532;-84
2022/07/07 05:24:16;;;;;;;11.73;10.43;;;15.50;99.90;;;;;;4956115;28;20181;-83
2022/07/07 05:26:41;;;;;;;11.40;10.13;;;15.50;99.90;;;;;;4956442;28;20323;-84
2022/07/07 05:29:07;;;;;;;13.07;9.43;;;15.60;99.90;;;;;;4955218;29;20186;-84
2022/07/07 05:31:33;;;;;;;9.97;8.77;;;15.60;99.90;;;;;;4956333;29;20178;-85
2022/07/07 05:33:58;;;;;;;8.93;7.60;;;15.60;99.90;;;;;;4956354;29;20178;-83
2022/07/07 05:36:24;;;;;;;9.80;7.23;;;15.60;99.90;;;;;;4956268;29;20210;-84
2022/07/07 05:38:50;;;;;;;8.40;7.50;;;15.60;99.90;;;;;;4954558;29;20273;-84
2022/07/07 05:41:16;;;;;;;8.10;6.77;;;15.60;99.90;;;;;;4956046;29;20206;-83
2022/07/07 05:43:42;;;;;;;8.27;7.40;;;15.60;99.90;;;;;;4954674;29;20429;-85
2022/07/07 05:46:08;;;;;;;8.07;6.80;;;15.60;99.90;;;;;;4956068;29;20550;-85
2022/07/07 05:48:33;;;;;;;7.20;5.37;;;15.60;99.90;;;;;;4956007;28;20188;-84
2022/07/07 05:50:58;;;;;;;6.50;5.90;;;15.60;99.90;;;;;;4954687;29;20178;-79
2022/07/07 05:53:24;;;;;;;5.87;5.10;;;15.70;99.90;;;;;;4955965;29;20544;-82
2022/07/07 05:55:50;;;;;;;7.80;5.33;;;15.70;99.90;;;;;;4955561;29;20250;-82
2022/07/07 05:58:15;;;;;;;6.13;4.23;;;15.80;99.90;;;;;;4954660;29;20635;-81
2022/07/07 06:00:41;;;;;;;6.30;5.67;;;15.90;99.90;;;;;;4955698;29;20621;-82
2022/07/07 06:03:06;;;;;;;5.23;4.43;;;16.00;99.90;;;;;;4954446;29;20183;-81
2022/07/07 06:05:32;;;;;;;5.87;4.50;;;16.00;99.90;;;;;;4955632;28;20570;-80
2022/07/07 06:07:58;;;;;;;5.07;4.57;;;16.00;99.90;;;;;;4955633;29;20179;-83
2022/07/07 06:10:23;;;;;;;4.53;3.50;;;16.00;99.90;;;;;;4955098;29;20281;-82
2022/07/07 06:12:49;;;;;;;2.90;2.57;;;16.10;99.90;;;;;;4955606;29;20184;-85
2022/07/07 06:15:17;;;;;;;3.10;2.70;;;16.20;99.90;;;;;;4955514;29;20219;-81
2022/07/07 06:17:43;;;;;;;3.43;2.63;;;16.20;99.90;;;;;;4954236;29;20180;-80
2022/07/07 06:20:09;;;;;;;4.77;2.10;;;16.20;99.90;;;;;;4955421;29;20438;-84
2022/07/07 06:22:35;;;;;;;3.03;2.47;;;16.30;99.90;;;;;;4955325;29;20789;-84
2022/07/07 06:25:01;;;;;;;2.43;1.70;;;16.30;99.90;;;;;;4955134;29;21006;-83
2022/07/07 06:27:26;;;;;;;4.20;2.60;;;16.30;99.90;;;;;;4955416;29;20211;-84
2022/07/07 06:29:55;;;;;;;2.33;1.80;;;16.40;99.90;;;;;;4954169;29;20217;-83
2022/07/07 06:32:21;;;;;;;3.67;3.13;;;16.60;99.90;;;;;;4955249;29;20172;-80
2022/07/07 06:34:46;;;;;;;3.40;2.90;;;16.80;99.90;;;;;;4955159;29;20428;-80
2022/07/07 06:37:12;;;;;;;4.50;2.60;;;16.90;99.90;;;;;;4955244;29;20508;-82
2022/07/07 06:39:37;;;;;;;1.87;1.60;;;17.00;99.90;;;;;;4954892;29;20183;-83
2022/07/07 06:42:03;;;;;;;2.60;1.53;;;17.20;99.90;;;;;;4955161;29;20243;-81
2022/07/07 06:44:32;;;;;;;2.00;1.17;;;17.40;99.90;;;;;;4955123;29;20168;-79
2022/07/07 06:46:58;;;;;;;1.27;0.80;;;17.80;99.90;;;;;;4955072;29;20180;-80
2022/07/07 06:49:28;;;;;;;2.03;0.90;;;17.70;99.90;;;;;;4955128;29;20426;-83
2022/07/07 06:51:54;;;;;;;0.90;0.37;;;17.40;99.90;;;;;;4955022;29;20438;-81
2022/07/07 06:54:20;;;;;;;0.97;0.60;;;17.30;99.90;;;;;;4954712;29;20482;-79
2022/07/07 06:56:46;;;;;;;1.30;0.60;;;17.20;99.90;;;;;;4954985;29;20435;-84
2022/07/07 06:59:11;;;;;;;1.03;0.70;;;17.40;99.90;;;;;;4954935;29;20795;-86
2022/07/07 07:01:37;;;;;;;1.73;0.23;;;17.80;99.90;;;;;;4954816;29;20705;-83
2022/07/07 07:04:03;;;;;;;1.47;0.50;;;17.90;99.90;;;;;;4955024;29;20672;-80
2022/07/07 07:06:29;;;;;;;0.67;0.53;;;18.00;99.90;;;;;;4954968;29;20705;-80
2022/07/07 07:08:55;;;;;;;1.03;0.40;;;18.10;99.90;;;;;;4954345;29;20172;-79
2022/07/07 07:11:21;;;;;;;3.07;0.60;;;18.00;99.90;;;;;;4954841;29;20433;-79
2022/07/07 07:13:47;;;;;;;2.20;0.50;;;17.70;99.90;;;;;;4954802;29;20980;-79
2022/07/07 07:16:14;;;;;;;1.10;0.30;;;17.50;99.90;;;;;;4954894;29;20167;-79
2022/07/07 07:18:39;;;;;;;1.57;0.60;;;17.20;99.90;;;;;;4957563;28;20471;-78
2022/07/07 07:21:05;;;;;;;2.57;0.60;;;17.10;99.90;;;;;;4958662;29;20506;-78
2022/07/07 07:23:30;;;;;;;5.13;0.53;;;17.10;99.90;;;;;;4958310;29;20188;-79
2022/07/07 07:25:56;;;;;;;0.80;0.50;;;17.20;99.90;;;;;;4958598;29;20178;-80
2022/07/07 07:28:21;;;;;;;1.90;0.80;;;17.40;99.90;;;;;;4958514;29;20174;-80
2022/07/07 07:30:47;;;;;;;1.67;0.73;;;17.40;99.90;;;;;;4958459;29;20254;-80
2022/07/07 07:33:13;;;;;;;1.10;0.60;;;17.30;99.90;;;;;;4958545;29;20216;-83
2022/07/07 07:35:38;;;;;;;2.17;0.60;;;17.50;99.90;;;;;;4958422;29;20188;-79
2022/07/07 07:38:03;;;;;;;1.30;1.20;;;18.00;99.90;;;;;;4958426;29;20176;-78
2022/07/07 07:40:29;;;;;;;5.43;1.27;;;18.50;99.90;;;;;;4957903;29;20177;-79
2022/07/07 07:42:54;;;;;;;2.60;1.40;;;19.50;99.90;;;;;;4958281;29;20534;-80
2022/07/07 07:45:21;;;;;;;2.50;0.60;;;19.30;99.90;;;;;;4958350;29;20661;-79
2022/07/07 07:47:47;;;;;;;1.90;0.53;;;19.20;99.90;;;;;;4958306;29;20185;-80
2022/07/07 07:50:16;;;;;;;2.07;0.77;;;18.70;99.90;;;;;;4958286;29;20420;-79
2022/07/07 07:52:43;;;;;;;2.70;0.60;;;18.50;99.90;;;;;;4958188;29;20428;-78
2022/07/07 07:55:10;;;;;;;1.73;1.10;;;18.50;99.90;;;;;;4957673;29;20776;-82
2022/07/07 07:57:36;;;;;;;1.93;0.50;;;18.60;99.90;;;;;;4958089;29;20424;-78
2022/07/07 08:00:05;;;;;;;2.50;0.53;;;18.80;99.90;;;;;;4957977;29;20471;-80
2022/07/07 08:02:30;;;;;;;2.93;0.40;;;21.00;99.90;;;;;;4957856;29;20493;-78
2022/07/07 08:04:56;;;;;;;2.83;0.60;;;22.00;99.90;;;;;;4957958;29;20449;-77
2022/07/07 08:07:21;;;;;;;3.03;0.67;;;21.30;99.90;;;;;;4956740;29;20178;-76
2022/07/07 08:09:47;;;;;;;2.77;0.43;;;20.50;99.90;;;;;;4957329;29;20232;-77
2022/07/07 08:12:13;;;;;;;4.63;1.20;;;20.90;99.90;;;;;;4959559;28;20271;-78
2022/07/07 08:14:38;;;;;;;1.60;0.80;;;21.30;99.90;;;;;;4983915;28;20194;-79
2022/07/07 08:17:04;;;;;;;1.80;0.80;;;20.90;99.90;;;;;;4996082;28;20593;-78
2022/07/07 08:19:33;;;;;;;4.33;0.53;;;20.60;99.90;;;;;;4996132;28;20166;-78
2022/07/07 08:21:58;;;;;;;1.63;0.30;;;19.80;99.90;;;;;;4996130;28;20218;-77
2022/07/07 08:24:27;;;;;;;2.23;0.50;;;19.00;99.90;;;;;;4995633;28;20808;-78
2022/07/07 08:26:53;;;;;;;1.60;0.40;;;18.10;99.90;;;;;;4995650;28;20196;-77
2022/07/07 08:29:19;;;;;;;0.93;0.23;;;17.70;99.90;;;;;;4993311;28;20451;-77
2022/07/07 08:31:45;;;;;;;1.53;0.40;;;17.60;99.90;;;;;;4994629;28;20181;-78
2022/07/07 08:34:10;;;;;;;0.73;0.40;;;17.40;99.90;;;;;;4995842;28;20407;-79
2022/07/07 08:36:36;;;;;;;2.37;0.40;;;17.50;99.90;;;;;;4995801;28;20685;-80
2022/07/07 08:39:01;;;;;;;4.90;0.77;;;17.50;99.90;;;;;;4995397;28;20170;-77
2022/07/07 08:41:27;;;;;;;2.80;0.50;;;17.60;99.90;;;;;;4995586;28;20218;-78
2022/07/07 08:43:55;;;;;;;1.70;0.40;;;17.60;99.90;;;;;;4995628;28;20168;-79
2022/07/07 08:46:21;;;;;;;1.80;0.87;;;17.90;99.90;;;;;;4995675;28;20434;-77
2022/07/07 08:48:47;;;;;;;3.43;0.90;;;18.50;99.90;;;;;;4995653;28;20419;-79
2022/07/07 08:51:13;;;;;;;1.27;0.40;;;;;;;;;;4995481;28;20572;-77
2022/07/07 08:53:38;;;;;;;3.30;0.40;;;21.20;99.90;;;;;;4995142;28;20178;-79
2022/07/07 08:56:06;;;;;;;2.80;0.40;;;20.90;99.90;;;;;;4995399;28;20843;-78
2022/07/07 08:58:32;;;;;;;1.90;0.50;;;20.90;99.90;;;;;;4995347;28;20265;-78
2022/07/07 09:00:58;;;;;;;2.30;0.80;;;21.50;99.90;;;;;;4995294;28;20476;-79
2022/07/07 09:03:26;;;;;;;3.10;0.60;;;21.70;99.90;;;;;;4995321;28;20426;-77
2022/07/07 09:05:53;;;;;;;1.43;0.40;;;21.40;99.90;;;;;;4995314;28;20446;-78
2022/07/07 09:08:20;;;;;;;1.17;0.30;;;21.40;99.90;;;;;;4994772;28;20426;-78
2022/07/07 09:10:46;;;;;;;2.40;0.53;;;21.20;99.90;;;;;;4994914;28;20474;-78
2022/07/07 09:13:26;;;;;;;1.60;0.30;;;21.30;99.90;;;;;;4995228;28;20955;-78
2022/07/07 09:15:53;;;;;;;3.53;1.30;;;21.30;99.90;;;;;;4995016;28;20178;-78
2022/07/07 09:18:33;;;;;;;3.03;1.00;;;20.70;99.90;;;;;;4994964;28;20426;-77
2022/07/07 09:21:00;;;;;;;2.20;0.37;;;21.80;99.90;;;;;;4994671;28;20470;-77
2022/07/07 09:23:26;;;;;;;2.10;0.67;;;21.70;99.90;;;;;;4994734;28;20419;-78
2022/07/07 09:25:52;;;;;;;1.47;0.77;;;21.30;99.90;;;;;;4994851;28;20791;-79
2022/07/07 09:28:17;;;;;;;3.03;0.80;;;21.00;99.90;;;;;;4994711;28;20423;-77
2022/07/07 09:30:45;;;;;;;3.03;0.33;;;21.50;99.90;;;;;;4994541;28;20175;-82
2022/07/07 09:33:18;;;;;;;2.17;0.50;;;23.10;99.90;;;;;;4994690;28;20616;-77
2022/07/07 09:38:31;;;;;;;2.50;0.50;;;22.20;99.90;;;;;;4992512;28;20422;-78
2022/07/07 09:41:03;;;;;;;1.77;0.63;;;21.40;99.90;;;;;;4990288;28;20466;-78
2022/07/07 09:43:32;;;;;;;3.17;0.70;;;20.40;99.90;;;;;;4992647;28;20422;-77
2022/07/07 09:46:20;;;;;;;1.80;0.47;;;19.70;99.90;;;;;;4994157;28;20465;-77
2022/07/07 09:48:50;;;;;;;2.00;0.50;;;19.20;99.90;;;;;;4994650;28;20757;-77
2022/07/07 09:51:23;;;;;;;1.27;0.37;;;18.80;99.90;;;;;;5001734;28;20429;-78
2022/07/07 09:54:04;;;;;;;1.50;0.43;;;18.60;99.90;;;;;;5006605;28;20416;-80
2022/07/07 09:56:30;;;;;;;2.53;0.70;;;18.60;99.90;;;;;;5002320;28;20449;-81
2022/07/07 09:58:57;;;;;;;1.13;0.30;;;18.60;99.90;;;;;;5005715;28;20438;-77
2022/07/07 10:01:25;;;;;;;2.40;0.60;;;18.80;99.90;;;;;;4994496;28;20207;-79
2022/07/07 10:03:56;;;;;;;2.13;0.57;;;19.10;99.90;;;;;;4994428;28;20550;-77
2022/07/07 10:06:24;;;;;;;1.63;0.40;;;19.40;99.90;;;;;;4994505;28;20525;-77
2022/07/07 10:08:54;;;;;;;1.83;0.60;;;19.60;99.90;;;;;;4993809;28;20419;-78
2022/07/07 10:11:24;;;;;;;6.03;0.70;;;20.00;99.90;;;;;;4994474;28;20426;-78
2022/07/07 10:13:53;;;;;;;3.50;0.80;;;21.20;99.90;;;;;;4994399;28;20798;-78
2022/07/07 10:16:20;;;;;;;2.33;0.70;;;21.80;1.00;;;;;;4994334;28;20432;-83
2022/07/07 10:18:46;;;;;;;3.83;0.40;;;21.50;99.90;;;;;;4994346;28;20414;-81
2022/07/07 10:21:13;;;;;;;2.33;0.27;;;21.00;99.90;;;;;;4994130;28;20461;-84
2022/07/07 10:23:39;;;;;;;2.77;0.83;;;20.50;99.90;;;;;;4992634;28;20436;-78
2022/07/07 10:26:07;;;;;;;2.93;0.57;;;20.20;99.90;;;;;;4994136;28;20414;-79
2022/07/07 10:28:53;;;;;;;2.67;0.70;;;19.60;99.90;;;;;;4994073;28;20245;-78
2022/07/07 10:31:26;;;;;;;3.07;1.30;;;19.60;99.90;;;;;;4994056;28;20452;-78
2022/07/07 10:33:58;;;;;;;2.00;1.20;;;19.70;54.70;;;;;;4994024;28;20431;-81
2022/07/07 10:36:24;;;;;;;4.97;1.70;;;19.70;99.90;;;;;;4993871;28;20404;-82
2022/07/07 10:38:55;;;;;;;6.20;1.37;;;20.10;99.90;;;;;;4993536;28;20435;-83
2022/07/07 10:41:24;;;;;;;2.50;0.70;;;20.40;1.00;;;;;;4993752;28;20690;-81
2022/07/07 10:44:05;;;;;;;2.33;0.80;;;21.00;1.00;;;;;;4993839;28;20573;-78
2022/07/07 10:46:34;;;;;;;2.50;0.70;;;21.40;1.00;;;;;;4993460;28;20424;-79
2022/07/07 10:49:10;;;;;;;3.17;0.77;;;21.00;99.90;;;;;;4993919;28;20425;-81
2022/07/07 10:51:53;;;;;;;3.07;0.30;;;20.90;1.00;;;;;;4993405;28;20812;-79
2022/07/07 10:54:36;;;;;;;4.60;0.50;;;20.30;1.00;;;;;;4993335;28;20426;-81
2022/07/07 10:57:09;;;;;;;2.27;0.67;;;19.90;1.00;;;;;;4993731;28;20776;-82
2022/07/07 11:00:09;;;;;;;2.63;0.60;;;19.70;1.00;;;;;;4993750;28;20434;-79
2022/07/07 11:02:47;;;;;;;1.07;0.50;;;20.10;1.00;;;;;;4993713;28;21061;-79
2022/07/07 11:05:13;;;;;;;3.10;0.93;;;21.20;99.90;;;;;;4993657;28;20753;-80
2022/07/07 11:07:40;;;;;;;1.83;0.30;;;23.40;99.90;;;;;;4993630;28;20466;-79
2022/07/07 11:10:11;;;;;;;0.83;0.20;;;24.30;1.00;;;;;;4993006;28;20235;-80
2022/07/07 11:12:41;;;;;;;0.97;0.40;;;24.30;1.00;;;;;;4993512;28;20422;-78
2022/07/07 11:15:21;;;;;;;3.87;0.37;;;23.60;1.00;;;;;;4993488;28;20494;-78
2022/07/07 11:18:14;;;;;;;0.93;0.30;;;22.50;1.00;;;;;;4993466;28;20417;-79
2022/07/07 11:20:59;;;;;;;2.50;0.30;;;21.80;1.00;;;;;;4993510;28;20760;-79
2022/07/07 11:23:26;;;;;;;2.53;0.70;;;21.30;99.90;;;;;;4993161;28;21001;-79
2022/07/07 11:25:56;;;;;;;1.97;0.63;;;21.00;99.90;;;;;;4993545;28;20413;-80
2022/07/07 11:28:24;;;;;;;4.53;0.40;;;20.80;99.90;;;;;;4993367;28;20554;-82
2022/07/07 11:30:59;;;;;;;3.20;0.50;;;20.60;99.90;;;;;;4993468;28;20413;-80
2022/07/07 11:33:25;;;;;;;2.93;0.40;;;20.80;1.00;;;;;;4993426;28;20800;-79
2022/07/07 11:35:51;;;;;;;4.33;0.50;;;20.90;1.00;;;;;;4992280;28;20941;-79
2022/07/07 11:38:16;;;;;;;4.07;0.70;;;20.50;99.90;;;;;;4992951;28;20180;-78
2022/07/07 11:40:45;;;;;;;1.83;0.83;;;20.60;1.00;;;;;;4993134;28;20174;-79
2022/07/07 11:43:21;;;;;;;1.67;0.60;;;21.30;99.90;;;;;;4993327;28;20237;-78
2022/07/07 11:45:46;;;;;;;3.20;0.20;;;22.00;99.90;;;;;;4991974;28;20414;-81
2022/07/07 11:48:12;;;;;;;2.23;0.47;;;21.80;7.50;;;;;;4993232;28;20453;-79
2022/07/07 11:50:38;;;;;;;1.47;0.30;;;21.80;1.00;;;;;;4993120;28;20478;-78
2022/07/07 11:53:11;;;;;;;3.33;0.73;;;21.40;99.90;;;;;;4992688;28;20176;-79
2022/07/07 11:55:39;;;;;;;3.53;0.40;;;21.20;99.90;;;;;;4992968;28;20934;-78
2022/07/07 11:58:07;;;;;;;2.00;0.60;;;20.80;99.90;;;;;;4993138;28;20772;-77
2022/07/07 12:00:35;;;;;;;2.97;0.30;;;20.30;1.00;;;;;;4991603;28;20429;-80
2022/07/07 12:03:04;;;;;;;1.83;0.60;;;19.80;1.00;;;;;;4991867;28;20423;-80
2022/07/07 12:05:35;;;;;;;3.33;0.30;;;19.60;62.10;;;;;;4996714;28;20446;-80
2022/07/07 12:08:06;;;;;;;3.47;0.30;;;19.60;99.90;;;;;;4996323;28;20943;-79
2022/07/07 12:10:35;;;;;;;1.73;0.20;;;19.80;99.90;;;;;;4996374;28;20474;-79
2022/07/07 12:13:02;;;;;;;1.83;0.40;;;20.00;77.10;;;;;;4996655;28;20434;-79
2022/07/07 12:15:34;;;;;;;1.43;0.30;;;20.10;1.00;;;;;;4996454;28;20840;-79
2022/07/07 12:18:01;;;;;;;1.27;0.20;;;20.40;1.00;;;;;;4996468;28;20425;-80
2022/07/07 12:20:27;;;;;;;2.40;0.33;;;20.90;1.00;;;;;;4996485;28;20418;-79
2022/07/07 12:23:05;;;;;;;1.63;0.30;;;21.00;1.00;;;;;;4995890;28;20487;-78
2022/07/07 12:25:33;;;;;;;1.80;0.33;;;20.40;99.90;;;;;;4995066;28;20444;-79
2022/07/07 12:28:05;;;;;;;1.97;0.60;;;19.60;15.40;;;;;;4996279;28;20492;-78
2022/07/07 12:30:33;;;;;;;0.80;0.20;;;19.40;94.10;;;;;;4996328;28;20434;-80
2022/07/07 12:32:59;;;;;;;2.73;0.53;;;19.00;99.90;;;;;;4996245;28;20446;-79
2022/07/07 12:35:37;;;;;;;1.23;0.20;;;18.80;99.90;;;;;;4996205;28;20419;-79
2022/07/07 12:38:04;;;;;;;0.93;0.20;;;19.00;99.90;;;;;;4995725;28;20783;-79
2022/07/07 12:40:31;;;;;;;1.83;0.30;;;19.40;99.90;;;;;;4996142;28;20414;-82
2022/07/07 12:43:04;;;;;;;0.80;0.30;;;19.70;99.90;;;;;;4996027;28;20513;-78
2022/07/07 12:45:30;;;;;;;0.50;0.30;;;20.10;58.70;;;;;;4996051;28;20409;-79
2022/07/07 12:47:55;;;;;;;3.20;0.60;;;20.80;1.00;;;;;;4995823;28;20421;-79
2022/07/07 12:50:22;;;;;;;4.20;0.57;;;20.90;99.90;;;;;;4995893;28;20505;-79